Time;durP1;ratioP1;P1;durP2;ratioP2;P2;SDS_P1;SDS_P2;PMS_P1;PMS_P2;Temp;Humidity;BMP_temperature;BMP_pressure;BME280_temperature;BME280_humidity;BME280_pressure;Samples;Min_cycle;Max_cycle;Signal;HPM_P1;HPM_P2
2021/06/04 00:00:43;;;;;;;0.00;0.00;;;20.60;99.90;;;;;;5072192;28;20054;-58
2021/06/04 00:03:24;;;;;;;0.00;0.00;;;20.60;99.90;;;;;;5089507;27;20062;-58
2021/06/04 00:05:53;;;;;;;0.10;0.10;;;20.60;99.90;;;;;;5073166;28;20036;-58
2021/06/04 00:08:22;;;;;;;0.00;0.00;;;20.60;99.90;;;;;;5071281;28;20024;-58
2021/06/04 00:10:58;;;;;;;0.00;0.00;;;20.50;99.90;;;;;;5072864;28;20036;-58
2021/06/04 00:13:30;;;;;;;0.00;0.00;;;20.50;99.90;;;;;;5072130;28;20482;-58
2021/06/04 00:16:04;;;;;;;0.05;0.05;;;20.50;99.90;;;;;;5072533;28;20081;-58
2021/06/04 00:18:31;;;;;;;0.00;0.00;;;20.50;99.90;;;;;;5088670;27;20362;-58
2021/06/04 00:20:59;;;;;;;0.00;0.00;;;20.50;99.90;;;;;;5071790;28;20039;-59
2021/06/04 00:23:29;;;;;;;0.00;0.00;;;20.50;99.90;;;;;;5071872;28;20035;-57
2021/06/04 00:25:55;;;;;;;0.00;0.00;;;20.50;99.90;;;;;;5054051;28;20034;-57
2021/06/04 00:28:21;;;;;;;0.00;0.00;;;20.50;99.90;;;;;;5072325;28;20365;-58
2021/06/04 00:30:51;;;;;;;0.00;0.00;;;20.40;99.90;;;;;;5071385;28;20021;-58
2021/06/04 00:33:16;;;;;;;0.00;0.00;;;20.40;99.90;;;;;;5058655;28;20056;-58
2021/06/04 00:35:42;;;;;;;0.00;0.00;;;20.30;99.90;;;;;;5071502;28;20083;-58
2021/06/04 00:38:09;;;;;;;0.00;0.00;;;20.40;99.90;;;;;;5072146;28;21980;-58
2021/06/04 00:40:41;;;;;;;0.03;0.03;;;20.30;99.90;;;;;;5072293;28;20081;-58
2021/06/04 00:43:09;;;;;;;0.10;0.10;;;20.30;99.90;;;;;;5053764;28;20222;-58
2021/06/04 00:45:39;;;;;;;0.00;0.00;;;20.30;99.90;;;;;;5072102;28;20028;-58
2021/06/04 00:48:05;;;;;;;0.00;0.00;;;20.30;99.90;;;;;;5071940;28;20102;-59
2021/06/04 00:50:58;;;;;;;0.00;0.00;;;20.30;99.90;;;;;;5071560;28;20029;-58
2021/06/04 00:53:26;;;;;;;0.00;0.00;;;20.30;99.90;;;;;;5088418;27;21972;-58
2021/06/04 00:55:55;;;;;;;0.00;0.00;;;20.30;99.90;;;;;;5072876;28;20028;-58
2021/06/04 00:58:25;;;;;;;0.00;0.00;;;20.30;99.90;;;;;;5057406;28;20031;-58
2021/06/04 01:00:56;;;;;;;0.00;0.00;;;20.30;99.90;;;;;;5058016;28;20685;-58
2021/06/04 01:03:26;;;;;;;0.00;0.00;;;20.20;99.90;;;;;;5071807;28;20029;-58
2021/06/04 01:05:54;;;;;;;0.00;0.00;;;20.20;99.90;;;;;;5071197;28;20035;-58
2021/06/04 01:08:32;;;;;;;0.00;0.00;;;20.20;99.90;;;;;;5072281;28;20043;-58
2021/06/04 01:11:41;;;;;;;0.00;0.00;;;20.20;99.90;;;;;;5071655;28;20570;-57
2021/06/04 01:14:26;;;;;;;0.00;0.00;;;20.10;99.90;;;;;;5071241;28;20039;-58
2021/06/04 01:17:19;;;;;;;0.00;0.00;;;20.10;99.90;;;;;;5071354;28;20027;-58
2021/06/04 01:20:00;;;;;;;0.00;0.00;;;20.10;99.90;;;;;;5070659;28;20035;-58
2021/06/04 01:22:54;;;;;;;0.00;0.00;;;20.00;99.90;;;;;;5071379;28;20032;-59
2021/06/04 01:25:45;;;;;;;0.00;0.00;;;20.00;99.90;;;;;;5071451;28;20028;-58
2021/06/04 01:28:19;;;;;;;0.00;0.00;;;20.00;99.90;;;;;;5071675;28;20842;-60
2021/06/04 01:31:10;;;;;;;0.00;0.00;;;20.00;99.90;;;;;;5070688;28;20042;-57
2021/06/04 01:33:40;;;;;;;0.00;0.00;;;20.00;99.90;;;;;;5071743;28;20063;-58
2021/06/04 01:36:07;;;;;;;0.00;0.00;;;19.90;99.90;;;;;;5057816;28;20043;-57
2021/06/04 01:38:36;;;;;;;0.00;0.00;;;19.90;99.90;;;;;;5051834;28;20041;-58
2021/06/04 01:41:07;;;;;;;0.00;0.00;;;19.90;99.90;;;;;;5070475;28;20037;-57
2021/06/04 01:43:39;;;;;;;0.00;0.00;;;19.90;99.90;;;;;;5071002;28;20083;-58
2021/06/04 01:46:10;;;;;;;0.00;0.00;;;19.90;99.90;;;;;;5072247;28;20047;-58
2021/06/04 01:48:42;;;;;;;0.00;0.00;;;19.90;99.90;;;;;;5058534;28;20041;-58
2021/06/04 01:51:22;;;;;;;0.00;0.00;;;19.90;99.90;;;;;;5071393;28;20039;-58
2021/06/04 01:53:56;;;;;;;0.00;0.00;;;19.90;99.90;;;;;;5070951;28;20036;-58
2021/06/04 01:56:30;;;;;;;0.00;0.00;;;19.90;99.90;;;;;;5087720;28;20039;-58
2021/06/04 01:59:00;;;;;;;0.00;0.00;;;19.90;99.90;;;;;;5071623;28;20045;-57
2021/06/04 02:01:36;;;;;;;0.00;0.00;;;19.80;99.90;;;;;;5072071;28;20039;-58
2021/06/04 02:04:19;;;;;;;0.00;0.00;;;19.80;99.90;;;;;;5071129;28;20407;-58
2021/06/04 02:06:44;;;;;;;;;;;19.80;99.90;;;;;;5071458;28;20589;-58
2021/06/04 02:09:16;;;;;;;0.00;0.00;;;19.70;99.90;;;;;;5072528;28;19991;-58
2021/06/04 02:11:45;;;;;;;0.08;0.08;;;19.70;99.90;;;;;;5070364;28;20047;-58
2021/06/04 02:14:15;;;;;;;0.10;0.10;;;19.70;99.90;;;;;;5090287;27;20032;-57
2021/06/04 02:16:59;;;;;;;0.10;0.10;;;19.70;99.90;;;;;;5074020;28;20078;-58
2021/06/04 02:20:03;;;;;;;0.03;0.03;;;19.70;99.90;;;;;;5073056;28;20094;-58
2021/06/04 02:22:34;;;;;;;0.00;0.00;;;19.60;99.90;;;;;;5075327;28;20387;-58
2021/06/04 02:25:17;;;;;;;0.00;0.00;;;19.50;99.90;;;;;;5074111;28;20032;-58
2021/06/04 02:28:02;;;;;;;0.00;0.00;;;19.50;99.90;;;;;;5060773;28;20463;-58
2021/06/04 02:30:36;;;;;;;0.00;0.00;;;19.50;99.90;;;;;;5056045;28;20079;-58
2021/06/04 02:33:17;;;;;;;0.00;0.00;;;19.40;99.90;;;;;;5074645;28;20350;-58
2021/06/04 02:35:51;;;;;;;0.00;0.00;;;19.40;99.90;;;;;;5073812;28;20083;-58
2021/06/04 02:38:28;;;;;;;0.03;0.03;;;19.30;99.90;;;;;;5074852;28;20477;-58
2021/06/04 02:41:22;;;;;;;0.08;0.08;;;19.20;99.90;;;;;;5073643;28;20028;-58
2021/06/04 02:43:54;;;;;;;0.00;0.00;;;19.20;99.90;;;;;;5063683;28;20044;-58
2021/06/04 02:46:33;;;;;;;0.00;0.00;;;19.20;99.90;;;;;;5073187;28;20039;-58
2021/06/04 02:49:00;;;;;;;0.00;0.00;;;19.10;99.90;;;;;;5073907;28;20135;-58
2021/06/04 02:51:55;;;;;;;0.00;0.00;;;19.10;99.90;;;;;;5074751;28;20057;-58
2021/06/04 02:54:25;;;;;;;0.00;0.00;;;19.10;99.90;;;;;;5058690;28;20488;-58
2021/06/04 02:56:55;;;;;;;0.00;0.00;;;19.00;99.90;;;;;;5056897;28;20457;-58
2021/06/04 02:59:23;;;;;;;0.00;0.00;;;19.00;99.90;;;;;;5089359;27;20076;-58
2021/06/04 03:01:55;;;;;;;0.00;0.00;;;19.00;99.90;;;;;;5071854;28;20441;-58
2021/06/04 03:04:21;;;;;;;0.00;0.00;;;19.00;99.90;;;;;;5059285;28;20442;-58
2021/06/04 03:06:52;;;;;;;0.00;0.00;;;19.00;99.90;;;;;;5074148;28;20035;-58
2021/06/04 03:09:25;;;;;;;0.00;0.00;;;19.00;99.90;;;;;;5073279;28;20142;-58
2021/06/04 03:11:54;;;;;;;0.10;0.10;;;19.00;99.90;;;;;;5073910;28;20028;-58
2021/06/04 03:14:21;;;;;;;0.00;0.00;;;18.90;99.90;;;;;;5073383;28;20496;-58
2021/06/04 03:16:48;;;;;;;0.00;0.00;;;18.90;99.90;;;;;;5073172;28;20622;-58
2021/06/04 03:19:16;;;;;;;0.00;0.00;;;18.90;99.90;;;;;;5088946;27;20097;-58
2021/06/04 03:22:00;;;;;;;0.00;0.00;;;18.90;99.90;;;;;;5073413;28;20024;-58
2021/06/04 03:24:30;;;;;;;0.08;0.08;;;18.90;99.90;;;;;;5073441;28;20047;-58
2021/06/04 03:26:56;;;;;;;0.10;0.10;;;18.90;99.90;;;;;;5073995;28;20063;-58
2021/06/04 03:29:22;;;;;;;0.00;0.00;;;18.90;99.90;;;;;;5072878;28;20059;-58
2021/06/04 03:31:55;;;;;;;0.05;0.05;;;18.90;99.90;;;;;;5073358;28;20760;-58
2021/06/04 03:34:20;;;;;;;;;;;18.80;99.90;;;;;;5073481;28;20024;-58
2021/06/04 03:36:50;;;;;;;0.08;0.08;;;18.80;99.90;;;;;;5063563;28;19922;-58
2021/06/04 03:39:21;;;;;;;0.00;0.00;;;18.70;99.90;;;;;;5073620;28;20093;-58
2021/06/04 03:41:49;;;;;;;0.03;0.03;;;18.70;99.90;;;;;;5072531;28;20028;-58
2021/06/04 03:44:20;;;;;;;0.08;0.08;;;18.70;99.90;;;;;;5072831;28;20090;-58
2021/06/04 03:46:45;;;;;;;0.00;0.00;;;18.60;99.90;;;;;;5072892;28;20028;-58
2021/06/04 03:49:16;;;;;;;0.00;0.00;;;18.60;99.90;;;;;;5072983;28;20370;-58
2021/06/04 03:51:42;;;;;;;0.00;0.00;;;18.60;99.90;;;;;;5072554;28;20047;-58
2021/06/04 03:54:13;;;;;;;0.00;0.00;;;18.70;99.90;;;;;;5073754;28;20146;-58
2021/06/04 03:56:41;;;;;;;0.03;0.03;;;18.70;99.90;;;;;;5072729;28;20043;-59
2021/06/04 03:59:10;;;;;;;0.00;0.00;;;18.70;99.90;;;;;;5071780;28;20530;-59
2021/06/04 04:01:42;;;;;;;0.00;0.00;;;18.70;99.90;;;;;;5063513;28;20457;-57
2021/06/04 04:04:07;;;;;;;0.10;0.10;;;18.70;99.90;;;;;;5073051;28;20640;-58
2021/06/04 04:06:34;;;;;;;0.00;0.00;;;18.70;99.90;;;;;;5071903;28;20044;-58
2021/06/04 04:09:05;;;;;;;0.00;0.00;;;18.70;99.90;;;;;;5072776;28;20075;-58
2021/06/04 04:11:30;;;;;;;0.00;0.00;;;18.70;99.90;;;;;;5072751;28;20044;-58
2021/06/04 04:13:58;;;;;;;0.10;0.10;;;18.80;99.90;;;;;;5072290;28;20593;-58
2021/06/04 04:16:27;;;;;;;0.00;0.00;;;18.90;99.90;;;;;;5072853;28;20101;-58
2021/06/04 04:18:55;;;;;;;0.00;0.00;;;18.90;99.90;;;;;;5071947;28;20459;-57
2021/06/04 04:21:21;;;;;;;0.00;0.00;;;18.90;99.90;;;;;;5054260;28;20039;-59
2021/06/04 04:23:54;;;;;;;0.00;0.00;;;18.90;99.90;;;;;;5071538;28;20025;-57
2021/06/04 04:26:23;;;;;;;0.10;0.10;;;19.00;99.90;;;;;;5072398;28;20510;-58
2021/06/04 04:28:50;;;;;;;0.00;0.00;;;19.00;99.90;;;;;;5071832;28;20070;-58
2021/06/04 04:31:24;;;;;;;0.00;0.00;;;19.10;99.90;;;;;;5072325;28;20055;-58
2021/06/04 04:33:51;;;;;;;0.00;0.00;;;19.10;99.90;;;;;;5072190;28;20137;-59
2021/06/04 04:36:19;;;;;;;0.10;0.10;;;19.10;99.90;;;;;;5071658;28;20037;-58
2021/06/04 04:38:47;;;;;;;0.00;0.00;;;19.20;99.90;;;;;;5063189;28;20452;-59
2021/06/04 04:41:15;;;;;;;0.00;0.00;;;19.20;99.90;;;;;;5072004;28;20036;-59
2021/06/04 04:43:45;;;;;;;0.00;0.00;;;19.20;99.90;;;;;;5072226;28;20029;-58
2021/06/04 04:46:11;;;;;;;0.10;0.10;;;19.20;99.90;;;;;;5071607;28;20060;-58
2021/06/04 04:48:37;;;;;;;0.00;0.00;;;19.20;99.90;;;;;;5088065;27;20040;-58
2021/06/04 04:51:08;;;;;;;0.00;0.00;;;19.10;99.90;;;;;;5071377;28;20040;-58
2021/06/04 04:53:37;;;;;;;0.00;0.00;;;19.10;99.90;;;;;;5071377;28;20051;-58
2021/06/04 04:56:04;;;;;;;0.00;0.00;;;19.10;99.90;;;;;;5053782;28;20031;-58
2021/06/04 04:58:30;;;;;;;0.00;0.00;;;19.00;99.90;;;;;;5052508;28;20039;-58
2021/06/04 05:00:56;;;;;;;0.00;0.00;;;19.00;99.90;;;;;;5070825;28;20053;-58
2021/06/04 05:03:22;;;;;;;0.00;0.00;;;18.90;99.90;;;;;;5071164;28;20020;-58
2021/06/04 05:05:51;;;;;;;0.10;0.10;;;18.90;99.90;;;;;;5071435;28;20372;-58
2021/06/04 05:08:17;;;;;;;0.00;0.00;;;18.90;99.90;;;;;;5071354;28;20032;-58
2021/06/04 05:10:45;;;;;;;0.00;0.00;;;18.90;99.90;;;;;;5071838;28;20032;-58
2021/06/04 05:13:12;;;;;;;0.00;0.00;;;18.90;99.90;;;;;;5072016;28;20036;-58
2021/06/04 05:15:39;;;;;;;0.00;0.00;;;18.90;99.90;;;;;;5070127;28;20036;-58
2021/06/04 05:18:09;;;;;;;0.00;0.00;;;19.00;99.90;;;;;;5070801;28;20073;-58
2021/06/04 05:20:35;;;;;;;0.00;0.00;;;19.00;99.90;;;;;;5057944;28;20036;-58
2021/06/04 05:23:03;;;;;;;0.05;0.05;;;19.10;99.90;;;;;;5072197;28;20040;-60
2021/06/04 05:25:35;;;;;;;0.00;0.00;;;19.10;99.90;;;;;;5070070;28;20111;-59
2021/06/04 05:28:01;;;;;;;0.00;0.00;;;19.20;99.90;;;;;;5071940;28;20028;-59
2021/06/04 05:30:35;;;;;;;0.00;0.00;;;19.20;99.90;;;;;;5087480;28;20070;-59
2021/06/04 05:33:01;;;;;;;0.00;0.00;;;19.30;99.90;;;;;;5086541;28;20042;-59
2021/06/04 05:35:30;;;;;;;0.10;0.10;;;19.40;99.90;;;;;;5067454;28;20710;-59
2021/06/04 05:37:56;;;;;;;0.00;0.00;;;19.50;99.90;;;;;;5086663;28;20043;-59
2021/06/04 05:40:35;;;;;;;0.00;0.00;;;19.50;99.90;;;;;;5071460;28;20067;-59
2021/06/04 05:43:03;;;;;;;0.00;0.00;;;19.60;99.90;;;;;;5072144;28;20048;-59
2021/06/04 05:45:31;;;;;;;0.00;0.00;;;19.60;99.90;;;;;;5070679;28;20029;-59
2021/06/04 05:47:57;;;;;;;0.08;0.08;;;19.60;99.90;;;;;;5074417;28;20032;-59
2021/06/04 05:50:29;;;;;;;0.00;0.00;;;19.70;99.90;;;;;;5074496;28;20028;-59
2021/06/04 05:52:55;;;;;;;0.00;0.00;;;19.80;99.90;;;;;;5075512;28;20478;-59
2021/06/04 05:55:25;;;;;;;0.00;0.00;;;19.90;99.90;;;;;;5075338;28;20039;-59
2021/06/04 05:57:51;;;;;;;0.00;0.00;;;20.00;99.90;;;;;;5075135;28;20032;-59
2021/06/04 06:00:25;;;;;;;0.00;0.00;;;20.10;99.90;;;;;;5074711;28;20058;-59
2021/06/04 06:02:51;;;;;;;0.00;0.00;;;20.30;99.90;;;;;;5073680;28;20020;-59
2021/06/04 06:05:19;;;;;;;0.00;0.00;;;20.30;99.90;;;;;;5075287;28;20024;-60
2021/06/04 06:07:45;;;;;;;0.00;0.00;;;20.30;99.90;;;;;;5049248;28;20089;-59
2021/06/04 06:10:11;;;;;;;0.00;0.00;;;20.40;99.90;;;;;;5074509;28;20495;-59
2021/06/04 06:12:40;;;;;;;0.00;0.00;;;20.30;99.90;;;;;;5074233;28;20036;-59
2021/06/04 06:15:08;;;;;;;0.00;0.00;;;20.30;99.90;;;;;;5074262;28;20032;-59
2021/06/04 06:17:36;;;;;;;0.00;0.00;;;20.30;99.90;;;;;;5090170;27;20036;-59
2021/06/04 06:20:07;;;;;;;0.00;0.00;;;20.30;99.90;;;;;;5059979;28;20028;-59
2021/06/04 06:22:32;;;;;;;0.00;0.00;;;20.40;99.90;;;;;;5073987;28;20025;-59
2021/06/04 06:24:58;;;;;;;0.00;0.00;;;20.40;99.90;;;;;;5074469;28;20634;-59
2021/06/04 06:27:26;;;;;;;0.00;0.00;;;20.40;99.90;;;;;;5055276;28;20363;-59
2021/06/04 06:29:51;;;;;;;0.00;0.00;;;20.40;99.90;;;;;;5073961;28;20187;-59
2021/06/04 06:32:20;;;;;;;0.00;0.00;;;20.50;99.90;;;;;;5074652;28;20041;-59
2021/06/04 06:34:48;;;;;;;0.00;0.00;;;20.50;99.90;;;;;;5074357;28;20054;-58
2021/06/04 06:37:15;;;;;;;0.00;0.00;;;20.50;99.90;;;;;;5073749;28;20036;-59
2021/06/04 06:39:43;;;;;;;0.00;0.00;;;20.50;99.90;;;;;;5090128;27;20119;-59
2021/06/04 06:42:12;;;;;;;0.00;0.00;;;20.60;99.90;;;;;;5073886;28;20085;-60
2021/06/04 06:44:37;;;;;;;0.00;0.00;;;20.70;99.90;;;;;;5073924;28;20093;-60
2021/06/04 06:47:04;;;;;;;0.00;0.00;;;20.90;99.90;;;;;;5089628;27;20104;-59
2021/06/04 06:49:30;;;;;;;0.00;0.00;;;21.00;99.90;;;;;;5064676;28;20390;-59
2021/06/04 06:51:58;;;;;;;0.00;0.00;;;21.30;99.90;;;;;;5060106;28;20107;-59
2021/06/04 06:54:31;;;;;;;0.00;0.00;;;21.50;99.90;;;;;;5074114;28;20047;-59
2021/06/04 06:56:58;;;;;;;0.00;0.00;;;21.50;99.90;;;;;;5074689;28;20032;-59
2021/06/04 06:59:29;;;;;;;0.00;0.00;;;21.50;99.90;;;;;;5072402;28;20443;-59
2021/06/04 07:01:57;;;;;;;0.00;0.00;;;21.50;99.90;;;;;;5073952;28;20052;-58
2021/06/04 07:04:24;;;;;;;0.00;0.00;;;21.60;99.90;;;;;;5073444;28;20032;-59
2021/06/04 07:06:54;;;;;;;0.00;0.00;;;21.50;99.90;;;;;;5073594;28;20032;-58
2021/06/04 07:09:20;;;;;;;0.00;0.00;;;21.40;99.90;;;;;;5074010;28;20028;-58
2021/06/04 07:11:50;;;;;;;0.00;0.00;;;21.40;99.90;;;;;;5074752;28;20140;-58
2021/06/04 07:14:19;;;;;;;0.00;0.00;;;21.60;99.90;;;;;;5089070;27;20028;-58
2021/06/04 07:16:45;;;;;;;0.00;0.00;;;21.90;99.90;;;;;;5073882;28;20338;-58
2021/06/04 07:19:10;;;;;;;0.00;0.00;;;22.10;99.90;;;;;;5073101;28;20047;-58
2021/06/04 07:21:40;;;;;;;0.00;0.00;;;22.50;99.90;;;;;;5073513;28;21932;-58
2021/06/04 07:24:13;;;;;;;0.00;0.00;;;22.70;99.90;;;;;;5072287;28;20024;-58
2021/06/04 07:26:49;;;;;;;0.00;0.00;;;22.90;99.90;;;;;;5073950;28;20203;-58
2021/06/04 07:29:16;;;;;;;0.00;0.00;;;22.90;99.90;;;;;;5054447;28;20040;-58
2021/06/04 07:31:42;;;;;;;0.00;0.00;;;23.00;99.90;;;;;;5089454;27;20037;-58
2021/06/04 07:34:12;;;;;;;0.00;0.00;;;22.90;99.90;;;;;;5073125;28;20040;-58
2021/06/04 07:36:42;;;;;;;0.00;0.00;;;22.90;99.90;;;;;;5072620;28;20380;-58
2021/06/04 07:39:17;;;;;;;0.00;0.00;;;22.80;99.90;;;;;;5073399;28;20033;-58
2021/06/04 07:41:44;;;;;;;0.00;0.00;;;22.90;99.90;;;;;;5053197;28;20470;-58
2021/06/04 07:44:12;;;;;;;0.00;0.00;;;23.00;99.90;;;;;;5088707;27;20629;-58
2021/06/04 07:46:39;;;;;;;0.00;0.00;;;23.10;99.90;;;;;;5072463;28;20024;-58
2021/06/04 07:49:05;;;;;;;0.00;0.00;;;23.20;99.90;;;;;;5072979;28;20807;-58
2021/06/04 07:51:38;;;;;;;0.00;0.00;;;23.20;99.90;;;;;;5072143;28;20027;-58
2021/06/04 07:54:08;;;;;;;0.00;0.00;;;23.20;99.90;;;;;;5072540;28;20032;-57
2021/06/04 07:56:34;;;;;;;0.00;0.00;;;23.20;99.90;;;;;;5088371;27;20036;-59
2021/06/04 07:59:00;;;;;;;0.00;0.00;;;23.20;99.90;;;;;;5071847;28;20036;-57
2021/06/04 08:01:29;;;;;;;0.00;0.00;;;23.10;99.90;;;;;;5072279;28;20035;-59
2021/06/04 08:03:58;;;;;;;0.00;0.00;;;23.20;99.90;;;;;;5063583;28;20028;-59
2021/06/04 08:06:23;;;;;;;0.00;0.00;;;23.30;99.90;;;;;;5055083;28;20036;-59
2021/06/04 08:08:53;;;;;;;0.05;0.05;;;23.40;99.90;;;;;;5072534;28;20414;-59
2021/06/04 08:11:32;;;;;;;0.00;0.00;;;23.50;99.90;;;;;;5087933;27;20029;-59
2021/06/04 08:14:00;;;;;;;0.00;0.00;;;23.70;99.90;;;;;;5072532;28;20102;-59
2021/06/04 08:16:27;;;;;;;0.00;0.00;;;23.60;99.90;;;;;;5062918;28;20504;-59
2021/06/04 08:18:56;;;;;;;0.00;0.00;;;23.60;99.90;;;;;;5072776;28;20028;-60
2021/06/04 08:21:31;;;;;;;0.00;0.00;;;23.70;99.90;;;;;;5071544;28;20033;-59
2021/06/04 08:23:57;;;;;;;0.00;0.00;;;23.60;99.90;;;;;;5071681;28;20114;-59
2021/06/04 08:26:26;;;;;;;0.00;0.00;;;23.60;99.90;;;;;;5088085;27;20031;-59
2021/06/04 08:28:52;;;;;;;0.00;0.00;;;23.50;99.90;;;;;;5072372;28;20036;-59
2021/06/04 08:31:21;;;;;;;0.00;0.00;;;23.40;99.90;;;;;;5071565;28;20066;-59
2021/06/04 08:33:47;;;;;;;0.00;0.00;;;23.30;99.90;;;;;;5053806;28;20875;-59
2021/06/04 08:36:20;;;;;;;0.00;0.00;;;23.30;99.90;;;;;;5072312;28;20039;-59
2021/06/04 08:38:46;;;;;;;0.00;0.00;;;23.50;99.90;;;;;;5072339;28;20036;-59
2021/06/04 08:41:29;;;;;;;0.00;0.00;;;23.70;99.90;;;;;;5070112;28;20027;-59
2021/06/04 08:44:03;;;;;;;;;;;23.90;99.90;;;;;;5072262;28;20376;-59
2021/06/04 08:46:35;;;;;;;0.00;0.00;;;24.10;99.90;;;;;;5071888;28;19916;-59
2021/06/04 08:49:09;;;;;;;0.00;0.00;;;24.10;99.90;;;;;;5071581;28;20074;-59
2021/06/04 08:51:58;;;;;;;0.00;0.00;;;24.30;99.90;;;;;;5071099;28;20123;-59
2021/06/04 08:55:01;;;;;;;0.00;0.00;;;24.40;99.90;;;;;;5071131;28;20104;-58
2021/06/04 08:57:56;;;;;;;0.00;0.00;;;24.60;99.90;;;;;;5008577;28;20036;-58
2021/06/04 09:00:29;;;;;;;0.00;0.00;;;24.70;99.90;;;;;;5025693;28;20032;-58
2021/06/04 09:03:02;;;;;;;0.00;0.00;;;24.80;99.90;;;;;;5071147;28;20041;-58
2021/06/04 09:05:40;;;;;;;0.00;0.00;;;25.00;99.90;;;;;;5071584;28;20093;-58
2021/06/04 09:08:15;;;;;;;0.00;0.00;;;25.10;99.90;;;;;;5057945;28;20093;-59
2021/06/04 09:10:55;;;;;;;0.00;0.00;;;25.10;99.90;;;;;;5072085;28;20035;-59
2021/06/04 09:13:24;;;;;;;0.00;0.00;;;25.30;99.90;;;;;;5071121;28;20036;-58
2021/06/04 09:16:00;;;;;;;0.00;0.00;;;25.50;99.90;;;;;;5071159;28;21583;-58
2021/06/04 09:18:41;;;;;;;0.00;0.00;;;25.80;98.70;;;;;;5072337;28;20031;-58
2021/06/04 09:21:20;;;;;;;0.00;0.00;;;25.80;98.80;;;;;;5073968;28;20099;-60
2021/06/04 09:23:48;;;;;;;0.00;0.00;;;26.00;98.30;;;;;;5077240;28;20036;-58
2021/06/04 09:26:16;;;;;;;0.00;0.00;;;26.10;98.00;;;;;;5077970;28;20025;-58
2021/06/04 09:29:05;;;;;;;0.00;0.00;;;26.20;97.30;;;;;;5077974;28;20029;-58
2021/06/04 09:31:36;;;;;;;0.00;0.00;;;26.10;96.40;;;;;;5076641;28;20071;-59
2021/06/04 09:34:26;;;;;;;0.00;0.00;;;26.40;96.60;;;;;;5077181;28;20028;-58
2021/06/04 09:36:57;;;;;;;0.00;0.00;;;26.60;96.80;;;;;;5062302;28;20024;-58
2021/06/04 09:39:45;;;;;;;0.00;0.00;;;26.70;95.90;;;;;;5076722;28;20139;-58
2021/06/04 09:42:27;;;;;;;0.00;0.00;;;26.60;93.90;;;;;;5093447;27;20035;-59
2021/06/04 09:45:01;;;;;;;0.00;0.00;;;26.70;94.10;;;;;;5077962;28;20028;-59
2021/06/04 09:47:43;;;;;;;0.00;0.00;;;26.70;93.70;;;;;;5077722;28;20052;-59
2021/06/04 09:50:46;;;;;;;0.00;0.00;;;26.60;92.60;;;;;;5077348;28;20126;-59
2021/06/04 09:53:18;;;;;;;0.00;0.00;;;26.40;92.20;;;;;;5057960;28;20058;-58
2021/06/04 09:55:51;;;;;;;0.00;0.00;;;26.50;92.70;;;;;;5078469;28;20032;-59
2021/06/04 09:58:26;;;;;;;0.00;0.00;;;26.60;91.60;;;;;;5063396;28;20067;-58
2021/06/04 10:00:57;;;;;;;0.00;0.00;;;26.70;91.20;;;;;;5076863;28;20040;-58
2021/06/04 10:03:29;;;;;;;0.00;0.00;;;26.80;90.60;;;;;;5076410;28;20025;-59
2021/06/04 10:06:14;;;;;;;;;;;26.90;88.00;;;;;;5094009;27;20028;-58
2021/06/04 10:09:17;;;;;;;0.00;0.00;;;26.80;88.90;;;;;;5063850;28;19912;-58
2021/06/04 10:11:43;;;;;;;0.00;0.00;;;26.80;90.30;;;;;;5078104;28;20212;-58
2021/06/04 10:17:01;;;;;;;0.00;0.00;;;27.30;86.10;;;;;;5076441;28;20024;-59
2021/06/04 10:19:35;;;;;;;0.00;0.00;;;27.50;86.70;;;;;;5077244;28;20036;-58
2021/06/04 10:22:16;;;;;;;0.00;0.00;;;27.80;86.10;;;;;;5076865;28;20078;-58
2021/06/04 10:24:52;;;;;;;0.00;0.00;;;27.80;84.50;;;;;;5077514;28;20044;-58
2021/06/04 10:27:40;;;;;;;0.00;0.00;;;27.80;83.30;;;;;;5064347;28;20902;-58
2021/06/04 10:30:30;;;;;;;0.00;0.00;;;28.00;83.40;;;;;;5077673;28;20058;-58
2021/06/04 10:33:03;;;;;;;0.00;0.00;;;28.10;80.90;;;;;;5075217;28;20067;-59
2021/06/04 10:35:42;;;;;;;0.00;0.00;;;28.30;80.90;;;;;;5073077;28;20031;-58
2021/06/04 10:38:21;;;;;;;0.08;0.08;;;28.50;79.10;;;;;;5074517;28;20059;-59
2021/06/04 10:40:50;;;;;;;0.00;0.00;;;28.30;77.70;;;;;;5073328;28;20024;-58
2021/06/04 10:43:19;;;;;;;2.30;2.20;;;28.20;78.80;;;;;;5073077;28;20109;-58
2021/06/04 10:46:13;;;;;;;0.00;0.00;;;28.20;79.40;;;;;;5073582;28;20058;-58
2021/06/04 10:48:56;;;;;;;0.00;0.00;;;28.30;79.20;;;;;;5074155;28;20028;-59
2021/06/04 10:51:31;;;;;;;0.00;0.00;;;28.00;78.30;;;;;;5074294;28;20089;-58
2021/06/04 10:54:07;;;;;;;0.00;0.00;;;28.10;78.20;;;;;;5074828;28;20032;-59
2021/06/04 10:56:41;;;;;;;0.00;0.00;;;28.30;78.20;;;;;;5074719;28;20067;-59
2021/06/04 10:59:29;;;;;;;0.00;0.00;;;28.40;77.10;;;;;;5060013;28;20040;-58
2021/06/04 11:02:06;;;;;;;0.00;0.00;;;28.20;77.70;;;;;;5074413;28;20036;-58
2021/06/04 11:04:55;;;;;;;0.00;0.00;;;28.00;77.30;;;;;;5073448;28;20031;-58
2021/06/04 11:07:32;;;;;;;0.00;0.00;;;27.80;78.80;;;;;;5073911;28;20035;-58
2021/06/04 11:10:10;;;;;;;0.00;0.00;;;27.90;79.80;;;;;;5072564;28;20036;-58
2021/06/04 11:12:35;;;;;;;0.00;0.00;;;27.80;80.70;;;;;;5073926;28;20078;-58
2021/06/04 11:15:15;;;;;;;0.00;0.00;;;27.80;82.90;;;;;;5073416;28;20506;-59
2021/06/04 11:18:02;;;;;;;0.00;0.00;;;28.00;81.60;;;;;;5073417;28;20352;-58
2021/06/04 11:21:01;;;;;;;0.00;0.00;;;28.20;78.60;;;;;;5073407;28;20116;-58
2021/06/04 11:23:30;;;;;;;0.00;0.00;;;28.50;78.20;;;;;;5054387;28;20739;-58
2021/06/04 11:26:04;;;;;;;0.00;0.00;;;28.80;77.90;;;;;;5073732;28;20029;-58
2021/06/04 11:29:13;;;;;;;0.00;0.00;;;29.20;74.90;;;;;;5073681;28;20034;-60
2021/06/04 11:32:07;;;;;;;0.00;0.00;;;29.20;74.40;;;;;;5053281;28;20354;-58
2021/06/04 11:35:10;;;;;;;0.00;0.00;;;29.70;70.90;;;;;;5073277;28;20499;-58
2021/06/04 11:37:36;;;;;;;0.00;0.00;;;30.00;68.00;;;;;;5072815;28;20028;-59
2021/06/04 11:40:20;;;;;;;0.00;0.00;;;30.80;66.90;;;;;;5071507;28;21044;-58
2021/06/04 11:42:46;;;;;;;0.00;0.00;;;31.30;65.20;;;;;;5072724;28;20039;-58
2021/06/04 11:45:18;;;;;;;0.00;0.00;;;31.00;64.30;;;;;;5071842;28;20363;-59
2021/06/04 11:47:44;;;;;;;0.00;0.00;;;30.60;63.70;;;;;;5072144;28;20028;-58
2021/06/04 11:50:22;;;;;;;0.00;0.00;;;30.00;64.10;;;;;;5073101;28;20051;-58
2021/06/04 11:52:52;;;;;;;0.00;0.00;;;29.50;65.60;;;;;;5073078;28;20032;-59
2021/06/04 11:55:32;;;;;;;0.00;0.00;;;29.10;66.20;;;;;;5071665;28;20036;-58
2021/06/04 11:58:15;;;;;;;0.00;0.00;;;29.00;68.20;;;;;;5072330;28;20027;-59
2021/06/04 12:00:52;;;;;;;0.00;0.00;;;29.10;68.10;;;;;;5073191;28;20047;-58
2021/06/04 12:03:28;;;;;;;0.00;0.00;;;29.20;68.20;;;;;;5071537;28;20498;-58
2021/06/04 12:05:57;;;;;;;0.00;0.00;;;29.10;67.90;;;;;;5072957;28;20988;-59
2021/06/04 12:08:29;;;;;;;0.00;0.00;;;29.00;69.30;;;;;;5073005;28;20032;-60
2021/06/04 12:10:54;;;;;;;0.00;0.00;;;28.90;70.60;;;;;;5072284;28;20040;-58
2021/06/04 12:13:37;;;;;;;0.00;0.00;;;28.90;70.00;;;;;;5072706;28;20036;-61
2021/06/04 12:16:28;;;;;;;0.00;0.00;;;28.90;69.10;;;;;;5072843;28;20079;-58
2021/06/04 12:18:59;;;;;;;0.00;0.00;;;28.70;68.40;;;;;;5072639;28;20364;-58
2021/06/04 12:21:55;;;;;;;0.00;0.00;;;28.40;70.70;;;;;;5072308;28;20035;-58
2021/06/04 12:24:21;;;;;;;0.00;0.00;;;28.10;71.90;;;;;;5072342;28;20024;-58
2021/06/04 12:26:46;;;;;;;0.00;0.00;;;27.90;72.80;;;;;;5058995;28;20909;-58
2021/06/04 12:29:26;;;;;;;0.00;0.00;;;27.80;72.50;;;;;;5070885;28;20478;-59
2021/06/04 12:31:54;;;;;;;0.00;0.00;;;27.60;73.90;;;;;;5071326;28;20038;-58
2021/06/04 12:34:35;;;;;;;0.00;0.00;;;27.40;74.90;;;;;;5057915;28;20140;-58
2021/06/04 12:37:27;;;;;;;0.00;0.00;;;27.30;76.50;;;;;;5071967;28;20040;-58
2021/06/04 12:39:53;;;;;;;;;;;27.20;77.20;;;;;;5070303;28;20065;-58
2021/06/04 12:42:24;;;;;;;0.00;0.00;;;27.10;78.30;;;;;;5072457;28;19916;-58
2021/06/04 12:44:50;;;;;;;0.00;0.00;;;26.90;80.30;;;;;;5071971;28;20107;-59
2021/06/04 12:47:30;;;;;;;0.00;0.00;;;26.90;82.00;;;;;;5071907;28;20057;-58
2021/06/04 12:50:17;;;;;;;0.00;0.00;;;26.90;82.30;;;;;;5071084;28;20569;-58
2021/06/04 12:52:43;;;;;;;0.00;0.00;;;27.10;82.10;;;;;;5071675;28;20040;-63
2021/06/04 12:55:32;;;;;;;0.00;0.00;;;27.40;80.60;;;;;;5071430;28;20132;-58
2021/06/04 12:58:25;;;;;;;0.00;0.00;;;28.10;77.00;;;;;;5071617;28;20226;-59
2021/06/04 13:00:51;;;;;;;0.00;0.00;;;28.90;73.60;;;;;;5071565;28;20059;-59
2021/06/04 13:03:28;;;;;;;0.00;0.00;;;28.60;70.10;;;;;;5071428;28;20032;-59
2021/06/04 13:05:58;;;;;;;0.00;0.00;;;30.40;69.00;;;;;;5071667;28;20097;-59
2021/06/04 13:08:37;;;;;;;0.00;0.00;;;30.90;65.00;;;;;;5069956;28;20036;-58
2021/06/04 13:11:05;;;;;;;0.00;0.00;;;31.40;64.10;;;;;;5071400;28;20063;-59
2021/06/04 13:13:43;;;;;;;0.00;0.00;;;32.10;63.00;;;;;;5055937;28;20028;-59
2021/06/04 13:16:23;;;;;;;0.00;0.00;;;33.40;58.90;;;;;;5071007;28;20047;-59
2021/06/04 13:18:55;;;;;;;0.00;0.00;;;33.30;57.00;;;;;;5070881;28;20046;-59
2021/06/04 13:21:29;;;;;;;2.50;2.40;;;33.00;57.30;;;;;;5071926;28;20098;-59